createdAt,value
2023-05-16T00:02:16.743Z,1.38
2023-05-16T00:04:46.645Z,1.13
2023-05-16T00:07:18.856Z,1.30
2023-05-16T00:09:47.107Z,1.50
2023-05-16T00:12:14.795Z,4.35
2023-05-16T00:14:42.856Z,1.60
2023-05-16T00:17:11.763Z,2.28
2023-05-16T00:19:40.387Z,1.83
2023-05-16T00:22:07.990Z,2.42
2023-05-16T00:24:35.564Z,1.40
2023-05-16T00:27:04.208Z,1.40
2023-05-16T00:29:32.205Z,2.35
2023-05-16T00:31:59.965Z,2.38
2023-05-16T00:34:27.572Z,4.55
2023-05-16T00:36:55.034Z,1.50
2023-05-16T00:39:22.563Z,1.17
2023-05-16T00:41:50.126Z,2.42
2023-05-16T00:44:17.606Z,3.45
2023-05-16T00:46:45.268Z,1.33
2023-05-16T00:49:12.981Z,1.40
2023-05-16T00:51:40.753Z,2.03
2023-05-16T00:54:08.509Z,2.20
2023-05-16T00:56:36.818Z,1.98
2023-05-16T00:59:04.612Z,3.22
2023-05-16T01:01:32.762Z,2.17
2023-05-16T01:04:01.458Z,1.65
2023-05-16T01:06:29.142Z,1.70
2023-05-16T01:08:59.618Z,1.45
2023-05-16T01:11:59.718Z,2.85
2023-05-16T01:14:43.437Z,2.13
2023-05-16T01:18:06.650Z,3.47
2023-05-16T01:21:08.303Z,3.45
2023-05-16T01:23:56.096Z,2.47
2023-05-16T01:26:26.792Z,2.15
2023-05-16T01:28:55.010Z,1.73
2023-05-16T01:31:23.908Z,9.52
2023-05-16T01:33:52.120Z,3.22
2023-05-16T01:36:45.805Z,2.42
2023-05-16T01:39:43.813Z,1.90
2023-05-16T01:42:16.211Z,1.60
2023-05-16T01:45:10.132Z,2.28
2023-05-16T01:47:42.278Z,2.55
2023-05-16T01:52:56.012Z,3.30
2023-05-16T01:55:47.500Z,4.93
2023-05-16T01:58:17.035Z,3.03
2023-05-16T02:00:45.086Z,4.82
2023-05-16T02:03:12.895Z,2.50
2023-05-16T02:05:40.610Z,2.15
2023-05-16T02:08:10.569Z,3.13
2023-05-16T02:10:40.215Z,2.55
2023-05-16T02:13:07.789Z,2.08
2023-05-16T02:15:35.809Z,3.30
2023-05-16T02:18:06.576Z,2.50
2023-05-16T02:20:34.103Z,1.55
2023-05-16T02:23:03.395Z,5.10
2023-05-16T02:25:32.979Z,2.63
2023-05-16T02:28:00.592Z,14.40
2023-05-16T02:30:28.447Z,2.67
2023-05-16T02:32:58.095Z,3.17
2023-05-16T02:35:26.013Z,4.43
2023-05-16T02:37:53.819Z,3.70
2023-05-16T02:40:21.289Z,3.08
2023-05-16T02:42:48.682Z,3.40
2023-05-16T02:45:18.909Z,3.20
2023-05-16T02:47:46.561Z,2.75
2023-05-16T02:50:14.019Z,2.13
2023-05-16T02:52:41.532Z,3.13
2023-05-16T02:55:21.625Z,2.80
2023-05-16T02:57:50.792Z,2.78
2023-05-16T03:00:19.434Z,1.75
2023-05-16T03:02:47.588Z,3.45
2023-05-16T03:05:15.187Z,1.73
2023-05-16T03:07:42.765Z,2.13
2023-05-16T03:10:10.599Z,2.60
2023-05-16T03:12:39.362Z,3.65
2023-05-16T03:15:09.327Z,4.07
2023-05-16T03:17:37.328Z,6.50
2023-05-16T03:20:05.825Z,2.95
2023-05-16T03:22:34.564Z,2.42
2023-05-16T03:25:02.860Z,3.15
2023-05-16T03:27:31.659Z,2.28
2023-05-16T03:29:59.492Z,2.90
2023-05-16T03:32:27.054Z,2.55
2023-05-16T03:34:54.709Z,2.17
2023-05-16T03:37:22.323Z,3.50
2023-05-16T03:39:49.885Z,3.53
2023-05-16T03:42:18.444Z,2.13
2023-05-16T03:44:46.402Z,3.20
2023-05-16T03:47:13.902Z,2.40
2023-05-16T03:49:41.408Z,266.77
2023-05-16T03:52:08.961Z,263.40
2023-05-16T03:54:36.387Z,261.02
2023-05-16T03:57:04.361Z,279.98
2023-05-16T03:59:31.925Z,249.98
2023-05-16T04:01:59.421Z,268.13
2023-05-16T04:04:27.011Z,278.02
2023-05-16T04:06:54.427Z,280.60
2023-05-16T04:09:21.835Z,271.40
2023-05-16T04:11:49.568Z,283.40
2023-05-16T04:14:17.245Z,302.40
2023-05-16T04:16:44.987Z,299.77
2023-05-16T04:19:12.587Z,315.38
2023-05-16T04:21:40.395Z,310.13
2023-05-16T04:24:08.465Z,329.70
2023-05-16T04:26:37.491Z,324.50
2023-05-16T04:29:04.914Z,323.83
2023-05-16T04:31:32.417Z,310.30
2023-05-16T04:34:00.048Z,298.55
2023-05-16T04:36:30.168Z,303.20
2023-05-16T04:38:57.818Z,298.13
2023-05-16T04:41:27.693Z,298.95
2023-05-16T04:43:55.279Z,300.77
2023-05-16T04:46:22.961Z,298.98
2023-05-16T04:48:50.519Z,294.90
2023-05-16T04:51:20.724Z,277.88
2023-05-16T04:53:48.400Z,275.45
2023-05-16T04:56:15.866Z,309.60
2023-05-16T04:58:43.460Z,307.77
2023-05-16T05:01:11.016Z,304.90
2023-05-16T05:03:38.452Z,303.83
2023-05-16T05:06:07.078Z,300.08
2023-05-16T05:08:34.455Z,288.30
2023-05-16T05:11:01.943Z,305.13
2023-05-16T05:13:29.566Z,293.77
2023-05-16T05:15:57.031Z,267.23
2023-05-16T05:18:24.611Z,272.00
2023-05-16T05:20:53.069Z,302.88
2023-05-16T05:23:21.037Z,288.20
2023-05-16T05:25:48.766Z,272.80
2023-05-16T05:28:16.468Z,285.63
2023-05-16T05:30:44.092Z,278.63
2023-05-16T05:33:12.146Z,254.05
2023-05-16T05:35:39.784Z,246.20
2023-05-16T05:38:09.764Z,250.63
2023-05-16T05:40:37.513Z,242.85
2023-05-16T05:43:05.271Z,229.65
2023-05-16T05:45:32.901Z,239.95
2023-05-16T05:48:00.630Z,244.20
2023-05-16T05:50:28.529Z,235.55
2023-05-16T05:52:56.560Z,250.63
2023-05-16T05:55:24.110Z,228.18
2023-05-16T05:57:51.573Z,227.93
2023-05-16T06:00:19.397Z,188.57
2023-05-16T06:02:48.496Z,184.85
2023-05-16T06:05:16.318Z,181.43
2023-05-16T06:07:43.982Z,160.20
2023-05-16T06:10:11.528Z,156.63
2023-05-16T06:12:39.188Z,160.93
2023-05-16T06:15:08.472Z,181.85
2023-05-16T06:17:36.641Z,192.88
2023-05-16T06:20:05.110Z,189.70
2023-05-16T06:22:32.689Z,176.90
2023-05-16T06:25:00.553Z,177.75
2023-05-16T06:27:28.218Z,183.43
2023-05-16T06:29:56.018Z,196.63
2023-05-16T06:32:23.549Z,200.65
2023-05-16T06:34:51.147Z,221.75
2023-05-16T06:37:18.664Z,220.18
2023-05-16T06:39:46.170Z,222.93
2023-05-16T06:42:13.763Z,229.25
2023-05-16T06:44:41.408Z,236.00
2023-05-16T06:47:09.172Z,243.00
2023-05-16T06:49:36.844Z,235.38
2023-05-16T06:52:04.802Z,225.57
2023-05-16T06:54:32.518Z,243.30
2023-05-16T06:57:00.183Z,223.02
2023-05-16T06:59:28.205Z,238.68
2023-05-16T07:01:56.009Z,241.98
2023-05-16T07:16:28.840Z,263.60
2023-05-16T07:18:56.959Z,265.88
2023-05-16T07:21:24.735Z,253.75
2023-05-16T07:23:52.588Z,260.35
2023-05-16T07:26:22.471Z,258.58
2023-05-16T07:28:52.694Z,197.20
2023-05-16T07:31:20.710Z,217.73
2023-05-16T07:33:49.348Z,217.35
2023-05-16T07:36:18.287Z,236.45
2023-05-16T07:38:46.183Z,252.80
2023-05-16T07:41:14.033Z,268.80
2023-05-16T07:43:42.271Z,267.98
2023-05-16T07:46:11.251Z,272.55
2023-05-16T07:48:39.080Z,253.00
2023-05-16T07:51:06.714Z,249.68
2023-05-16T07:53:34.700Z,275.17
2023-05-16T07:56:02.464Z,278.05
2023-05-16T07:58:30.122Z,231.52
2023-05-16T08:00:57.902Z,249.38
2023-05-16T08:03:27.969Z,231.73
2023-05-16T08:05:56.168Z,251.80
2023-05-16T08:08:23.784Z,285.23
2023-05-16T08:10:51.357Z,289.10
2023-05-16T08:13:21.932Z,328.35
2023-05-16T08:15:49.717Z,340.27
2023-05-16T08:18:18.794Z,335.80
2023-05-16T08:20:47.739Z,367.00
2023-05-16T08:23:15.610Z,346.15
2023-05-16T08:25:43.160Z,357.98
2023-05-16T08:28:11.283Z,369.20
2023-05-16T08:30:41.078Z,371.05
2023-05-16T08:33:10.543Z,353.00
2023-05-16T08:35:42.073Z,339.80
2023-05-16T08:38:09.950Z,331.90
2023-05-16T08:40:37.598Z,356.55
2023-05-16T08:51:11.150Z,25.75
2023-05-16T08:53:53.489Z,62.63
2023-05-16T08:59:32.657Z,151.30
2023-05-16T09:02:00.767Z,112.65
2023-05-16T09:04:31.967Z,109.53
2023-05-16T09:06:59.517Z,98.55
2023-05-16T09:09:27.108Z,103.15
2023-05-16T09:11:54.555Z,98.40
2023-05-16T09:14:22.471Z,100.47
2023-05-16T09:17:12.341Z,112.82
2023-05-16T09:19:41.420Z,111.10
2023-05-16T09:22:13.967Z,99.78
2023-05-16T09:24:45.292Z,119.82
2023-05-16T09:27:15.052Z,140.73
2023-05-16T09:29:50.556Z,113.43
2023-05-16T09:32:18.225Z,107.25
2023-05-16T09:34:51.551Z,107.70
2023-05-16T09:37:20.309Z,116.57
2023-05-16T09:39:49.988Z,107.03
2023-05-16T09:42:19.628Z,110.50
2023-05-16T09:44:52.118Z,119.63
2023-05-16T09:47:21.449Z,123.00
2023-05-16T09:49:53.492Z,107.30
2023-05-16T09:52:27.041Z,96.45
2023-05-16T09:54:57.435Z,103.40
2023-05-16T09:57:27.350Z,96.90
2023-05-16T09:59:55.044Z,101.15
2023-05-16T10:02:23.049Z,97.35
2023-05-16T10:04:51.337Z,94.90
2023-05-16T10:07:22.227Z,87.22
2023-05-16T10:09:51.727Z,91.93
2023-05-16T10:12:30.309Z,97.57
2023-05-16T10:14:57.974Z,88.03
2023-05-16T10:17:27.583Z,97.10
2023-05-16T10:19:55.798Z,90.90
2023-05-16T10:22:25.019Z,98.82
2023-05-16T10:25:00.976Z,94.50
2023-05-16T10:27:29.530Z,90.50
2023-05-16T10:29:58.794Z,100.35
2023-05-16T10:32:28.068Z,96.10
2023-05-16T10:34:56.869Z,91.80
2023-05-16T10:37:25.970Z,86.07
2023-05-16T10:39:54.204Z,98.05
2023-05-16T10:42:21.812Z,94.82
2023-05-16T10:45:05.084Z,82.68
2023-05-16T10:47:34.293Z,80.35
2023-05-16T10:50:01.910Z,91.00
2023-05-16T10:52:35.531Z,86.85
2023-05-16T10:55:05.025Z,83.85
2023-05-16T10:57:34.455Z,83.90
2023-05-16T11:00:04.378Z,83.55
2023-05-16T11:02:40.159Z,83.88
2023-05-16T11:05:18.266Z,90.53
2023-05-16T11:08:06.067Z,77.10
2023-05-16T11:10:33.743Z,77.32
2023-05-16T11:13:08.620Z,75.70
2023-05-16T11:15:36.290Z,80.30
2023-05-16T11:18:11.298Z,79.55
2023-05-16T11:20:40.307Z,77.90
2023-05-16T11:23:21.904Z,88.20
2023-05-16T11:25:58.953Z,81.47
2023-05-16T11:28:27.647Z,79.32
2023-05-16T11:30:57.844Z,75.85
2023-05-16T11:33:26.829Z,84.03
2023-05-16T11:36:14.610Z,80.95
2023-05-16T11:38:44.241Z,80.70
2023-05-16T11:41:12.483Z,80.40
2023-05-16T11:43:42.183Z,87.13
2023-05-16T11:46:17.107Z,89.95
2023-05-16T11:48:47.586Z,87.22
2023-05-16T11:51:19.115Z,85.38
2023-05-16T11:53:50.300Z,84.00
2023-05-16T11:56:18.771Z,93.20
2023-05-16T11:58:46.354Z,85.95
2023-05-16T12:01:14.176Z,83.28
2023-05-16T12:03:41.927Z,88.60
2023-05-16T12:06:09.606Z,80.78
2023-05-16T12:08:37.644Z,84.97
2023-05-16T12:11:05.316Z,84.13
2023-05-16T12:13:33.162Z,84.05
2023-05-16T12:16:00.837Z,83.18
2023-05-16T12:18:28.499Z,81.28
2023-05-16T12:20:56.025Z,89.68
2023-05-16T12:23:23.721Z,86.40
2023-05-16T12:25:55.640Z,81.00
2023-05-16T12:30:51.036Z,82.60
2023-05-16T12:33:18.549Z,71.63
2023-05-16T12:35:48.040Z,79.13
2023-05-16T12:38:17.424Z,79.97
2023-05-16T12:40:45.686Z,86.13
2023-05-16T12:43:23.241Z,77.22
2023-05-16T12:45:55.423Z,83.03
2023-05-16T12:48:24.715Z,80.47
2023-05-16T12:50:52.186Z,82.57
2023-05-16T12:53:20.022Z,84.90
2023-05-16T12:55:48.144Z,82.28
2023-05-16T12:58:16.705Z,82.05
2023-05-16T13:00:44.266Z,85.03
2023-05-16T13:03:12.427Z,79.07
2023-05-16T13:05:40.043Z,84.65
2023-05-16T13:08:07.825Z,83.25
2023-05-16T13:10:36.225Z,94.43
2023-05-16T13:13:06.290Z,79.38
2023-05-16T13:15:33.944Z,76.85
2023-05-16T13:18:01.847Z,86.35
2023-05-16T13:20:29.643Z,82.25
2023-05-16T13:22:57.413Z,75.40
2023-05-16T13:25:25.106Z,76.88
2023-05-16T13:27:52.796Z,78.88
2023-05-16T13:30:20.448Z,80.85
2023-05-16T13:32:48.704Z,85.47
2023-05-16T13:35:16.419Z,80.70
2023-05-16T13:37:44.033Z,80.57
2023-05-16T13:40:12.097Z,80.38
2023-05-16T13:42:39.634Z,78.03
2023-05-16T13:45:08.183Z,84.80
2023-05-16T13:47:36.611Z,80.97
2023-05-16T13:50:09.430Z,87.25
2023-05-16T13:52:38.474Z,72.93
2023-05-16T13:55:07.084Z,78.78
2023-05-16T13:57:42.402Z,85.15
2023-05-16T14:02:43.780Z,79.88
2023-05-16T14:05:11.884Z,85.00
2023-05-16T14:07:41.692Z,82.80
2023-05-16T14:10:09.994Z,80.10
2023-05-16T14:12:38.205Z,80.50
2023-05-16T14:15:07.554Z,78.65
2023-05-16T14:17:37.623Z,78.00
2023-05-16T14:20:10.409Z,79.50
2023-05-16T14:22:40.926Z,89.30
2023-05-16T14:25:10.715Z,83.07
2023-05-16T14:27:38.373Z,82.32
2023-05-16T14:30:10.049Z,86.90
2023-05-16T14:32:40.205Z,77.85
2023-05-16T14:35:10.701Z,82.32
2023-05-16T14:37:40.998Z,71.63
2023-05-16T14:40:09.737Z,83.65
2023-05-16T14:42:37.663Z,83.28
2023-05-16T14:45:05.901Z,85.45
2023-05-16T14:47:36.684Z,89.30
2023-05-16T14:50:07.527Z,78.20
2023-05-16T14:52:35.313Z,79.57
2023-05-16T14:55:06.221Z,83.35
2023-05-16T14:57:37.102Z,81.47
2023-05-16T15:00:11.731Z,83.93
2023-05-16T15:02:39.535Z,85.07
2023-05-16T15:05:09.908Z,79.95
2023-05-16T15:07:37.935Z,80.03
2023-05-16T15:10:10.235Z,76.30
2023-05-16T15:12:42.525Z,84.22
2023-05-16T15:15:16.188Z,77.97
2023-05-16T15:17:46.356Z,89.93
2023-05-16T15:20:15.193Z,81.68
2023-05-16T15:22:45.572Z,85.40
2023-05-16T15:25:17.708Z,81.95
2023-05-16T15:27:52.916Z,82.65
2023-05-16T15:30:23.198Z,80.43
2023-05-16T15:32:50.913Z,76.72
2023-05-16T15:35:21.308Z,89.85
2023-05-16T15:37:53.199Z,78.32
2023-05-16T15:40:26.990Z,79.40
2023-05-16T15:42:57.201Z,80.63
2023-05-16T15:45:25.264Z,84.00
2023-05-16T15:47:53.240Z,79.72
2023-05-16T15:50:24.299Z,82.85
2023-05-16T15:52:54.485Z,81.37
2023-05-16T15:55:22.214Z,88.72
2023-05-16T15:57:49.950Z,77.00
2023-05-16T16:00:18.169Z,88.28
2023-05-16T16:02:46.562Z,80.55
2023-05-16T16:05:17.904Z,84.20
2023-05-16T16:07:48.270Z,84.93
2023-05-16T16:10:19.489Z,74.45
2023-05-16T16:13:04.553Z,79.63
2023-05-16T16:15:36.265Z,81.35
2023-05-16T16:20:37.628Z,79.07
2023-05-16T16:23:05.363Z,80.20
2023-05-16T16:25:33.269Z,85.35
2023-05-16T16:28:01.948Z,83.70
2023-05-16T16:30:31.899Z,96.25
2023-05-16T16:33:02.874Z,83.68
2023-05-16T16:35:33.070Z,81.53
2023-05-16T16:38:06.637Z,93.57
2023-05-16T16:40:35.561Z,86.00
2023-05-16T16:43:04.366Z,87.15
2023-05-16T16:45:32.415Z,91.53
2023-05-16T16:48:02.360Z,92.15
2023-05-16T16:50:31.153Z,90.75
2023-05-16T16:53:04.685Z,93.97
2023-05-16T16:55:32.363Z,99.18
2023-05-16T16:58:02.345Z,96.93
2023-05-16T17:00:33.115Z,100.32
2023-05-16T17:03:01.087Z,100.63
2023-05-16T17:05:29.105Z,101.53
2023-05-16T17:07:57.121Z,87.88
2023-05-16T17:10:24.873Z,91.15
2023-05-16T17:12:52.617Z,93.47
2023-05-16T17:15:20.510Z,89.28
2023-05-16T17:17:49.479Z,95.45
2023-05-16T17:20:21.012Z,88.68
2023-05-16T17:22:48.945Z,94.10
2023-05-16T17:25:16.886Z,89.63
2023-05-16T17:27:49.289Z,93.38
2023-05-16T17:30:19.959Z,91.13
2023-05-16T17:32:50.530Z,97.13
2023-05-16T17:35:20.841Z,96.65
2023-05-16T17:37:49.985Z,95.32
2023-05-16T17:40:21.253Z,103.63
2023-05-16T17:42:54.238Z,94.05
2023-05-16T17:45:21.851Z,96.85
2023-05-16T17:47:50.301Z,89.00
2023-05-16T17:50:20.061Z,98.32
2023-05-16T17:52:47.634Z,97.68
2023-05-16T17:55:17.925Z,94.97
2023-05-16T17:57:48.412Z,98.15
2023-05-16T18:00:17.897Z,95.32
2023-05-16T18:02:48.973Z,95.25
2023-05-16T18:05:19.024Z,93.15
2023-05-16T18:07:48.875Z,92.70
2023-05-16T18:10:16.790Z,93.57
2023-05-16T18:12:44.604Z,89.15
2023-05-16T18:15:14.711Z,97.72
2023-05-16T18:17:42.840Z,90.38
2023-05-16T18:20:16.173Z,93.18
2023-05-16T18:22:44.401Z,95.72
2023-05-16T18:25:12.409Z,98.45
2023-05-16T18:27:40.041Z,89.45
2023-05-16T18:30:08.751Z,94.43
2023-05-16T18:32:39.896Z,92.20
2023-05-16T18:35:08.016Z,97.82
2023-05-16T18:37:38.625Z,93.82
2023-05-16T18:40:10.289Z,88.32
2023-05-16T18:42:38.136Z,94.30
2023-05-16T18:45:09.166Z,98.72
2023-05-16T18:47:37.322Z,96.70
2023-05-16T18:50:05.417Z,99.40
2023-05-16T18:52:35.691Z,105.13
2023-05-16T18:55:11.355Z,98.18
2023-05-16T18:57:38.941Z,100.80
2023-05-16T19:00:07.855Z,107.05
2023-05-16T19:05:09.559Z,121.30
2023-05-16T19:07:41.039Z,139.30
2023-05-16T19:10:12.128Z,145.57
2023-05-16T19:12:39.916Z,152.13
2023-05-16T19:15:09.211Z,151.20
2023-05-16T19:17:36.972Z,168.63
2023-05-16T19:20:08.450Z,152.40
2023-05-16T19:22:36.237Z,156.13
2023-05-16T19:25:06.922Z,162.38
2023-05-16T19:27:34.625Z,159.73
2023-05-16T19:30:04.689Z,168.15
2023-05-16T19:32:34.838Z,168.50
2023-05-16T19:35:04.802Z,171.30
2023-05-16T19:37:32.598Z,176.15
2023-05-16T19:40:00.533Z,185.43
2023-05-16T19:42:28.150Z,176.70
2023-05-16T19:44:55.904Z,182.70
2023-05-16T19:47:26.272Z,194.10
2023-05-16T19:49:56.330Z,186.80
2023-05-16T19:52:26.102Z,199.27
2023-05-16T19:54:53.798Z,191.68
2023-05-16T19:57:21.320Z,206.07
2023-05-16T19:59:49.005Z,203.73
2023-05-16T20:02:17.393Z,188.25
2023-05-16T20:04:45.958Z,190.80
2023-05-16T20:07:13.831Z,178.85
2023-05-16T20:09:44.257Z,190.20
2023-05-16T20:12:12.930Z,163.18
2023-05-16T20:14:40.880Z,173.93
2023-05-16T20:17:12.031Z,158.05
2023-05-16T20:19:44.117Z,123.90
2023-05-16T20:24:41.752Z,109.47
2023-05-16T20:27:14.193Z,100.10
2023-05-16T20:29:41.860Z,91.65
2023-05-16T20:32:12.678Z,88.00
2023-05-16T20:34:41.694Z,89.50
2023-05-16T20:37:18.169Z,87.45
2023-05-16T20:39:45.942Z,85.10
2023-05-16T20:42:13.775Z,77.78
2023-05-16T20:44:44.446Z,76.70
2023-05-16T20:47:14.311Z,76.30
2023-05-16T20:49:44.966Z,76.15
2023-05-16T20:52:12.740Z,77.63
2023-05-16T20:54:41.987Z,83.95
2023-05-16T20:57:09.909Z,72.85
2023-05-16T20:59:37.714Z,79.03
2023-05-16T21:02:06.417Z,72.63
2023-05-16T21:04:34.188Z,75.75
2023-05-16T21:07:01.897Z,74.30
2023-05-16T21:09:32.327Z,71.40
2023-05-16T21:12:02.975Z,69.43
2023-05-16T21:14:30.678Z,72.22
2023-05-16T21:17:01.123Z,70.55
2023-05-16T21:19:36.495Z,67.25
2023-05-16T21:22:06.470Z,72.43
2023-05-16T21:24:35.929Z,73.90
2023-05-16T21:27:06.015Z,71.55
2023-05-16T21:29:38.120Z,78.72
2023-05-16T21:32:09.275Z,76.70
2023-05-16T21:34:37.069Z,79.20
2023-05-16T21:37:06.026Z,77.57
2023-05-16T21:39:33.644Z,78.13
2023-05-16T21:42:01.422Z,79.22
2023-05-16T21:44:29.569Z,81.55
2023-05-16T21:46:57.641Z,82.97
2023-05-16T21:49:28.072Z,79.93
2023-05-16T21:51:55.850Z,75.97
2023-05-16T21:54:23.742Z,75.75
2023-05-16T21:56:51.713Z,79.95
2023-05-16T21:59:19.416Z,84.70
2023-05-16T22:01:47.164Z,79.47
2023-05-16T22:04:24.188Z,73.90
2023-05-16T22:06:52.296Z,82.22
2023-05-16T22:09:20.838Z,77.30
2023-05-16T22:11:48.491Z,82.35
2023-05-16T22:14:16.209Z,76.18
2023-05-16T22:16:43.965Z,79.38
2023-05-16T22:19:14.166Z,81.63
2023-05-16T22:21:44.148Z,72.93
2023-05-16T22:24:15.132Z,79.75
2023-05-16T22:26:43.028Z,85.15
2023-05-16T22:29:16.074Z,81.25
2023-05-16T22:31:44.189Z,78.65
2023-05-16T22:34:14.221Z,89.20
2023-05-16T22:36:50.766Z,73.95
2023-05-16T22:39:18.449Z,76.50
2023-05-16T22:41:48.411Z,78.10
2023-05-16T22:44:19.169Z,84.28
2023-05-16T22:46:47.067Z,82.20
2023-05-16T22:49:15.367Z,76.60
2023-05-16T22:51:43.165Z,74.22
2023-05-16T22:54:10.823Z,81.47
2023-05-16T22:56:38.692Z,85.82
2023-05-16T22:59:09.103Z,84.50
2023-05-16T23:01:39.823Z,80.25
2023-05-16T23:04:07.711Z,77.38
2023-05-16T23:06:35.887Z,85.30
2023-05-16T23:09:04.913Z,81.45
2023-05-16T23:11:33.245Z,88.10
2023-05-16T23:14:00.996Z,83.40
2023-05-16T23:16:28.685Z,78.05
2023-05-16T23:18:59.097Z,90.95
2023-05-16T23:21:29.766Z,87.40
2023-05-16T23:24:00.753Z,90.10
2023-05-16T23:26:28.370Z,90.55
2023-05-16T23:28:56.214Z,89.10
2023-05-16T23:31:26.076Z,90.88
2023-05-16T23:33:53.950Z,91.65
2023-05-16T23:36:21.753Z,86.47
2023-05-16T23:38:49.451Z,87.65
2023-05-16T23:41:17.534Z,94.65
2023-05-16T23:43:45.281Z,94.70
2023-05-16T23:46:15.822Z,91.88
2023-05-16T23:48:43.627Z,94.38
2023-05-16T23:51:11.417Z,102.03
2023-05-16T23:53:41.842Z,96.95
2023-05-16T23:56:12.237Z,109.63
2023-05-16T23:58:40.190Z,102.60
